Time;durP1;ratioP1;P1;durP2;ratioP2;P2;SDS_P1;SDS_P2;PMS_P1;PMS_P2;Temp;Humidity;BMP_temperature;BMP_pressure;BME280_temperature;BME280_humidity;BME280_pressure;Samples;Min_cycle;Max_cycle;Signal;HPM_P1;HPM_P2
2022/07/25 00:02:16;;;;;;;44.13;16.90;;;;;;;28.06;59.69;99267.59;5093154;28;20195;-57
2022/07/25 00:04:43;;;;;;;27.25;17.35;;;;;;;27.69;62.05;99254.78;5093300;28;21028;-57
2022/07/25 00:07:10;;;;;;;29.23;16.38;;;;;;;27.52;63.48;99266.31;5080960;28;20187;-57
2022/07/25 00:09:37;;;;;;;26.95;16.25;;;;;;;27.18;64.82;99261.16;5091530;28;20195;-58
2022/07/25 00:12:05;;;;;;;22.42;14.48;;;;;;;26.95;62.83;99272.94;5093200;28;20195;-57
2022/07/25 00:14:32;;;;;;;16.80;14.65;;;;;;;26.77;62.64;99279.19;5092862;28;20199;-57
2022/07/25 00:16:59;;;;;;;22.45;14.82;;;;;;;26.53;65.63;99280.47;5093067;28;20665;-58
2022/07/25 00:19:26;;;;;;;21.80;15.02;;;;;;;26.32;66.54;99287.69;5093104;28;20203;-58
2022/07/25 00:21:53;;;;;;;15.85;14.18;;;;;;;26.01;67.17;99285.75;5093189;28;20191;-58
2022/07/25 00:24:19;;;;;;;20.35;15.32;;;;;;;25.99;70.47;99299.88;5079626;28;21352;-57
2022/07/25 00:26:46;;;;;;;19.70;14.82;;;;;;;25.86;70.90;99302.28;5072383;28;20195;-59
2022/07/25 00:29:14;;;;;;;17.17;14.60;;;;;;;25.83;72.26;99305.06;5072608;28;20542;-59
2022/07/25 00:31:41;;;;;;;19.33;14.93;;;;;;;25.70;71.74;99307.44;5081062;28;20214;-57
2022/07/25 00:34:08;;;;;;;16.03;14.30;;;;;;;25.64;70.06;99315.63;5085675;28;20195;-58
2022/07/25 00:36:35;;;;;;;17.50;15.57;;;;;;;25.56;70.25;99307.25;5078639;28;20641;-58
2022/07/25 00:39:02;;;;;;;22.43;14.07;;;;;;;25.53;68.04;99310.03;5092240;28;20198;-58
2022/07/25 00:41:28;;;;;;;14.83;13.50;;;;;;;25.57;68.10;99313.38;5091857;28;20981;-58
2022/07/25 00:43:55;;;;;;;15.43;13.93;;;;;;;25.60;66.73;99310.59;5092294;28;20222;-57
2022/07/25 00:46:23;;;;;;;15.40;13.85;;;;;;;25.60;66.63;99310.59;5092717;28;20194;-57
2022/07/25 00:48:50;;;;;;;16.53;14.80;;;;;;;25.60;67.34;99292.16;5092726;28;20194;-58
2022/07/25 00:51:17;;;;;;;15.23;13.63;;;;;;;25.59;64.03;99290.47;5092787;28;20217;-56
2022/07/25 00:53:45;;;;;;;15.40;13.80;;;;;;;25.73;62.70;99295.91;5092820;28;20191;-58
2022/07/25 00:56:12;;;;;;;16.00;14.50;;;;;;;25.88;61.39;99279.34;5092449;28;20213;-58
2022/07/25 00:58:39;;;;;;;15.45;14.02;;;;;;;26.04;59.20;99285.56;5091867;28;20455;-58
2022/07/25 01:01:06;;;;;;;14.13;12.73;;;;;;;26.11;59.69;99286.97;5092327;28;20206;-59
2022/07/25 01:03:34;;;;;;;13.20;12.17;;;;;;;26.19;59.86;99290.09;5088005;28;20207;-66
2022/07/25 01:06:01;;;;;;;15.00;13.60;;;;;;;26.25;60.24;99288.94;5090853;28;20684;-67
2022/07/25 01:08:28;;;;;;;14.20;12.88;;;;;;;26.29;59.77;99295.75;5091650;28;20187;-58
2022/07/25 01:10:55;;;;;;;13.63;12.33;;;;;;;26.29;60.07;99298.38;5091333;28;20704;-58
2022/07/25 01:13:22;;;;;;;13.25;12.25;;;;;;;26.32;59.49;99301.72;5089032;28;20600;-68
2022/07/25 01:15:48;;;;;;;14.52;13.18;;;;;;;26.32;58.38;99293.81;5091481;28;20194;-66
2022/07/25 01:18:15;;;;;;;14.23;12.85;;;;;;;26.38;58.51;99284.75;5091730;28;20190;-58
2022/07/25 01:20:44;;;;;;;14.05;12.75;;;;;;;26.42;56.93;99293.34;5091540;28;20284;-59
2022/07/25 01:23:11;;;;;;;13.45;12.30;;;;;;;26.61;55.00;99294.09;5090478;28;20439;-59
2022/07/25 01:25:38;;;;;;;13.60;12.50;;;;;;;26.67;54.98;99294.63;5091313;28;20207;-67
2022/07/25 01:28:05;;;;;;;12.23;11.25;;;;;;;26.72;53.28;99292.63;5091455;28;20179;-65
2022/07/25 01:30:32;;;;;;;13.73;12.63;;;;;;;26.81;53.47;99283.41;5086506;28;20199;-57
2022/07/25 01:32:59;;;;;;;11.82;10.93;;;;;;;26.91;49.59;99288.09;5089215;28;20218;-58
2022/07/25 01:35:26;;;;;;;11.95;11.02;;;;;;;26.99;49.70;99274.50;5091636;28;20641;-66
2022/07/25 01:37:54;;;;;;;12.52;11.35;;;;;;;27.03;49.38;99270.75;5091489;28;20195;-66
2022/07/25 01:40:21;;;;;;;12.27;11.30;;;;;;;27.07;49.58;99255.63;5091755;28;20191;-66
2022/07/25 01:42:48;;;;;;;12.25;11.27;;;;;;;27.13;49.18;99255.28;5091790;28;20581;-67
2022/07/25 01:45:15;;;;;;;12.75;11.70;;;;;;;27.14;49.45;99260.47;5090618;28;20700;-66
2022/07/25 01:47:41;;;;;;;12.30;11.40;;;;;;;27.14;50.72;99270.19;5091523;28;20187;-66
2022/07/25 01:50:09;;;;;;;14.23;13.02;;;;;;;27.17;50.22;99262.94;5091375;28;20560;-66
2022/07/25 01:52:36;;;;;;;13.27;12.18;;;;;;;27.15;51.09;99245.50;5091350;28;20191;-66
2022/07/25 01:55:06;;;;;;;12.77;11.68;;;;;;;27.08;51.67;99244.13;5091313;28;20194;-66
2022/07/25 01:57:33;;;;;;;13.30;12.10;;;;;;;27.17;50.57;99240.97;5090238;28;20443;-66
2022/07/25 02:00:00;;;;;;;15.52;11.85;;;;;;;27.22;50.36;99236.31;5091298;28;20446;-66
2022/07/25 02:02:27;;;;;;;15.65;12.57;;;;;;;27.18;51.18;99218.94;5091079;28;20666;-66
2022/07/25 02:04:54;;;;;;;13.75;12.32;;;;;;;27.16;52.12;99208.50;5090987;28;20589;-67
2022/07/25 02:07:21;;;;;;;15.38;13.85;;;;;;;27.10;52.54;99206.19;5091084;28;20199;-67
2022/07/25 02:09:48;;;;;;;14.23;12.75;;;;;;;27.08;52.36;99209.84;5089544;28;20206;-67
2022/07/25 02:12:16;;;;;;;14.35;13.00;;;;;;;27.11;52.35;99207.03;5091113;28;20205;-67
2022/07/25 02:14:42;;;;;;;14.25;13.00;;;;;;;27.07;52.87;99194.94;5091125;28;20267;-67
2022/07/25 02:17:09;;;;;;;14.00;12.77;;;;;;;27.06;53.02;99198.53;5091095;28;20634;-66
2022/07/25 02:19:36;;;;;;;14.70;13.40;;;;;;;27.13;52.76;99191.97;5090115;28;20456;-68
2022/07/25 02:22:03;;;;;;;14.50;13.05;;;;;;;27.14;53.20;99198.97;5092079;28;20604;-67
2022/07/25 02:24:31;;;;;;;15.18;13.90;;;;;;;27.07;53.16;99187.88;5090162;28;20681;-58
2022/07/25 02:26:58;;;;;;;14.70;13.40;;;;;;;27.09;53.29;99186.00;5089039;28;20209;-58
2022/07/25 02:29:26;;;;;;;14.32;13.23;;;;;;;27.07;52.91;99182.63;5090793;28;20201;-58
2022/07/25 02:31:53;;;;;;;13.73;12.60;;;;;;;27.04;53.12;99180.13;5090621;28;20202;-58
2022/07/25 02:34:20;;;;;;;14.10;13.00;;;;;;;27.05;52.87;99170.44;5090633;28;20187;-58
2022/07/25 02:36:47;;;;;;;14.32;13.18;;;;;;;26.97;53.48;99170.03;5090560;28;20197;-58
2022/07/25 02:39:14;;;;;;;14.40;13.02;;;;;;;26.89;53.71;99168.66;5090901;28;20187;-58
2022/07/25 02:41:41;;;;;;;13.73;12.50;;;;;;;26.86;53.10;99173.25;5090442;28;20187;-58
2022/07/25 02:44:08;;;;;;;13.90;12.80;;;;;;;26.87;53.72;99181.06;5090547;28;20225;-58
2022/07/25 02:46:36;;;;;;;14.50;13.20;;;;;;;26.90;52.31;99185.31;5090633;28;20195;-58
2022/07/25 02:49:03;;;;;;;15.20;13.82;;;;;;;26.87;53.92;99188.97;5090476;28;20191;-58
2022/07/25 02:51:30;;;;;;;14.48;13.27;;;;;;;26.85;54.60;99184.72;5090309;28;20286;-58
2022/07/25 02:53:57;;;;;;;14.93;13.68;;;;;;;26.85;54.52;99192.66;5090058;28;20444;-58
2022/07/25 02:56:24;;;;;;;13.85;12.65;;;;;;;26.79;54.69;99193.81;5090214;28;20187;-58
2022/07/25 02:58:51;;;;;;;13.88;12.48;;;;;;;26.73;54.95;99177.44;5089940;28;20219;-59
2022/07/25 03:01:18;;;;;;;13.45;12.35;;;;;;;26.74;55.24;99187.06;5090302;28;20201;-59
2022/07/25 03:03:46;;;;;;;12.95;11.70;;;;;;;26.71;54.89;99185.47;5090191;28;20206;-58
2022/07/25 03:06:13;;;;;;;13.63;12.38;;;;;;;26.75;54.66;99189.63;5090347;28;20218;-57
2022/07/25 03:08:39;;;;;;;12.68;11.43;;;;;;;26.77;53.92;99198.31;5073243;28;20203;-57
2022/07/25 03:11:06;;;;;;;13.20;12.10;;;;;;;26.79;53.55;99206.16;5084626;28;20202;-57
2022/07/25 03:13:33;;;;;;;12.98;11.70;;;;;;;26.76;54.13;99208.91;5090047;28;20661;-57
2022/07/25 03:16:00;;;;;;;15.47;12.07;;;;;;;26.70;54.48;99215.38;5089523;28;20424;-57
2022/07/25 03:18:28;;;;;;;13.10;11.90;;;;;;;26.72;54.37;99213.53;5089829;28;20255;-57
2022/07/25 03:20:56;;;;;;;11.82;10.68;;;;;;;26.74;54.08;99214.28;5089892;28;20191;-57
2022/07/25 03:23:25;;;;;;;13.43;11.82;;;;;;;26.69;53.89;99207.56;5090172;28;20194;-57
2022/07/25 03:25:52;;;;;;;12.73;11.73;;;;;;;26.69;54.12;99218.09;5089997;28;20230;-58
2022/07/25 03:28:19;;;;;;;13.35;12.15;;;;;;;26.73;53.79;99222.25;5089890;28;20205;-57
2022/07/25 03:30:46;;;;;;;12.98;11.88;;;;;;;26.79;53.36;99219.34;5089942;28;20194;-56
2022/07/25 03:33:13;;;;;;;13.40;12.07;;;;;;;26.83;52.68;99219.09;5090160;28;20623;-57
2022/07/25 03:35:40;;;;;;;13.27;12.10;;;;;;;26.87;52.71;99230.31;5089829;28;20199;-57
2022/07/25 03:38:08;;;;;;;13.20;12.02;;;;;;;26.84;52.50;99230.47;5089831;28;20195;-67
2022/07/25 03:40:35;;;;;;;13.07;11.98;;;;;;;26.88;52.38;99235.53;5084421;28;20199;-67
2022/07/25 03:43:02;;;;;;;12.60;11.70;;;;;;;26.84;52.38;99233.13;5087419;28;20258;-66
2022/07/25 03:45:29;;;;;;;12.18;11.05;;;;;;;26.78;52.50;99244.84;5089583;28;20210;-67
2022/07/25 03:47:55;;;;;;;12.20;11.05;;;;;;;26.62;53.29;99237.81;5089162;28;20191;-68
2022/07/25 03:50:22;;;;;;;12.52;11.43;;;;;;;26.66;53.37;99234.09;5087240;28;20194;-66
2022/07/25 03:52:49;;;;;;;12.52;11.20;;;;;;;26.55;53.93;99229.38;5087757;28;20802;-58
2022/07/25 03:55:17;;;;;;;14.32;12.45;;;;;;;26.60;53.92;99240.53;5088398;28;20195;-58
2022/07/25 03:57:44;;;;;;;12.57;11.40;;;;;;;26.52;53.55;99226.91;5089211;28;20218;-57
2022/07/25 04:00:12;;;;;;;13.07;11.95;;;;;;;26.56;53.86;99239.00;5089519;28;20232;-66
2022/07/25 04:02:39;;;;;;;13.68;12.38;;;;;;;26.55;54.02;99236.44;5086468;28;20187;-57
2022/07/25 04:05:07;;;;;;;12.88;11.63;;;;;;;26.56;54.05;99239.00;5088425;28;20211;-57
2022/07/25 04:07:34;;;;;;;12.98;11.82;;;;;;;26.68;53.28;99237.47;5088170;28;20194;-57
2022/07/25 04:10:01;;;;;;;13.38;12.00;;;;;;;26.72;53.11;99236.41;5093252;28;20194;-57
2022/07/25 04:12:29;;;;;;;13.60;12.32;;;;;;;26.82;52.14;99238.47;5092929;28;20806;-57
2022/07/25 04:14:56;;;;;;;13.65;12.25;;;;;;;26.88;51.42;99232.03;5093040;28;20199;-67
2022/07/25 04:17:22;;;;;;;12.35;11.30;;;;;;;26.96;51.06;99243.00;5093159;28;20573;-68
2022/07/25 04:19:49;;;;;;;12.20;11.20;;;;;;;27.02;51.03;99232.13;5087181;28;20194;-67
2022/07/25 04:22:16;;;;;;;12.13;11.05;;;;;;;27.08;50.64;99237.06;5092050;28;20198;-68
2022/07/25 04:24:43;;;;;;;13.43;12.05;;;;;;;27.18;50.62;99235.63;5091958;28;20214;-67
2022/07/25 04:27:10;;;;;;;13.20;12.10;;;;;;;27.26;50.08;99236.03;5092596;28;20649;-67
2022/07/25 04:29:38;;;;;;;12.55;11.45;;;;;;;27.30;50.35;99239.38;5092635;28;20199;-67
2022/07/25 04:32:06;;;;;;;15.32;11.38;;;;;;;27.35;50.21;99237.31;5090076;28;20190;-67
2022/07/25 04:34:32;;;;;;;12.50;11.60;;;;;;;27.32;50.29;99241.00;5089079;28;20210;-68
2022/07/25 04:36:59;;;;;;;12.38;11.25;;;;;;;27.34;50.45;99239.09;5089396;28;20195;-68
2022/07/25 04:39:26;;;;;;;12.02;11.02;;;;;;;27.32;50.59;99241.00;5090428;28;20200;-67
2022/07/25 04:41:53;;;;;;;12.73;11.73;;;;;;;27.31;50.73;99238.41;5092863;28;20190;-67
2022/07/25 04:44:20;;;;;;;14.02;12.75;;;;;;;27.36;50.70;99242.50;5092649;28;20195;-67
2022/07/25 04:46:48;;;;;;;13.25;12.18;;;;;;;27.35;51.07;99243.47;5092571;28;20195;-67
2022/07/25 04:49:15;;;;;;;13.45;12.07;;;;;;;27.44;50.55;99244.75;5092209;28;20709;-67
2022/07/25 04:51:41;;;;;;;15.05;12.93;;;;;;;27.47;51.08;99255.13;5091470;28;20590;-68
2022/07/25 04:54:09;;;;;;;12.75;11.65;;;;;;;27.55;50.36;99246.78;5092119;28;20259;-68
2022/07/25 04:56:36;;;;;;;12.93;11.80;;;;;;;27.57;50.75;99251.03;5091672;28;20207;-68
2022/07/25 04:59:04;;;;;;;12.57;11.50;;;;;;;27.62;50.68;99259.56;5092054;28;20202;-68
2022/07/25 05:01:32;;;;;;;13.05;11.57;;;;;;;27.63;50.94;99256.00;5092440;28;20191;-68
2022/07/25 05:04:00;;;;;;;12.65;11.55;;;;;;;27.68;50.84;99253.06;5092343;28;20203;-68
2022/07/25 05:06:27;;;;;;;13.30;11.90;;;;;;;27.70;50.88;99249.41;5092255;28;20260;-66
2022/07/25 05:08:54;;;;;;;13.95;12.13;;;;;;;27.66;51.40;99247.84;5092335;28;20198;-66
2022/07/25 05:11:20;;;;;;;13.57;12.38;;;;;;;27.73;51.35;99257.16;5091093;28;20444;-68
2022/07/25 05:13:47;;;;;;;14.27;11.82;;;;;;;27.80;50.91;99260.31;5091902;28;20197;-67
2022/07/25 05:16:14;;;;;;;12.82;11.77;;;;;;;27.82;51.04;99250.50;5090872;28;20684;-67
2022/07/25 05:18:41;;;;;;;13.73;12.43;;;;;;;27.90;50.50;99248.25;5091206;28;20183;-68
2022/07/25 05:21:11;;;;;;;13.35;12.20;;;;;;;27.88;50.51;99242.22;5090976;28;20191;-68
2022/07/25 05:23:38;;;;;;;14.23;12.80;;;;;;;27.95;50.12;99256.75;5091846;28;20175;-68
2022/07/25 05:26:05;;;;;;;13.43;12.18;;;;;;;27.93;50.56;99256.00;5090990;28;20213;-68
2022/07/25 05:28:32;;;;;;;16.00;11.70;;;;;;;27.97;50.70;99270.72;5085836;28;20195;-69
2022/07/25 05:30:59;;;;;;;16.13;12.50;;;;;;;27.91;51.15;99266.63;5089809;28;20181;-69
2022/07/25 05:33:26;;;;;;;13.57;12.27;;;;;;;27.99;51.19;99266.22;5090860;28;20248;-69
2022/07/25 05:35:53;;;;;;;13.02;11.93;;;;;;;27.99;51.81;99247.72;5090724;28;20183;-68
2022/07/25 05:38:21;;;;;;;13.10;11.68;;;;;;;28.20;50.48;99267.63;5091148;28;20180;-68
2022/07/25 05:40:50;;;;;;;14.95;12.48;;;;;;;28.29;51.05;99267.09;5089576;28;20206;-67
2022/07/25 05:43:17;;;;;;;14.07;12.82;;;;;;;28.38;50.21;99263.88;5091131;28;20190;-68
2022/07/25 05:45:46;;;;;;;20.50;13.80;;;;;;;28.36;50.59;99254.34;5091319;28;20241;-68
2022/07/25 05:48:13;;;;;;;14.25;12.80;;;;;;;28.48;50.18;99266.81;5091095;28;20593;-67
2022/07/25 05:50:40;;;;;;;13.27;11.95;;;;;;;28.40;50.60;99254.06;5091425;28;20194;-69
2022/07/25 05:53:06;;;;;;;13.80;12.40;;;;;;;28.53;50.37;99262.97;5091134;28;20187;-68
2022/07/25 05:55:35;;;;;;;14.23;12.85;;;;;;;28.68;50.64;99262.03;5090732;28;20646;-68
2022/07/25 05:58:02;;;;;;;14.23;12.95;;;;;;;28.75;49.81;99259.03;5091064;28;20253;-58
2022/07/25 06:00:29;;;;;;;13.73;12.43;;;;;;;28.81;49.52;99254.22;5090867;28;20194;-58
2022/07/25 06:02:58;;;;;;;13.77;12.55;;;;;;;28.82;49.09;99262.97;5090930;28;20213;-58
2022/07/25 06:05:25;;;;;;;13.43;11.98;;;;;;;28.87;49.53;99261.75;5091050;28;20306;-58
2022/07/25 06:07:52;;;;;;;13.70;12.57;;;;;;;28.97;49.80;99265.56;5086330;28;20444;-58
2022/07/25 06:10:19;;;;;;;13.65;12.48;;;;;;;29.18;48.56;99250.09;5086443;28;20190;-58
2022/07/25 06:12:47;;;;;;;13.55;12.25;;;;;;;29.22;48.63;99255.16;5090911;28;20191;-58
2022/07/25 06:15:13;;;;;;;14.05;12.35;;;;;;;29.36;48.16;99258.72;5090610;28;20191;-58
2022/07/25 06:17:40;;;;;;;13.18;12.07;;;;;;;29.31;48.22;99253.69;5090657;28;20648;-59
2022/07/25 06:20:08;;;;;;;13.50;12.30;;;;;;;29.29;48.57;99255.59;5089745;28;20198;-58
2022/07/25 06:22:35;;;;;;;12.88;11.80;;;;;;;29.43;48.16;99249.41;5089285;28;20664;-58
2022/07/25 06:25:02;;;;;;;13.60;12.23;;;;;;;29.42;47.86;99250.38;5090210;28;20201;-58
2022/07/25 06:27:29;;;;;;;12.85;11.75;;;;;;;29.52;47.65;99257.63;5086208;28;20192;-58
2022/07/25 06:29:57;;;;;;;14.15;12.35;;;;;;;29.63;47.92;99247.19;5082097;28;20602;-58
2022/07/25 06:32:24;;;;;;;13.18;11.82;;;;;;;29.60;47.29;99239.44;5086042;28;20187;-58
2022/07/25 06:34:51;;;;;;;14.20;12.77;;;;;;;29.63;48.16;99243.69;5089219;28;20631;-58
2022/07/25 06:37:18;;;;;;;16.70;13.00;;;;;;;29.85;47.74;99245.78;5085093;28;20193;-58
2022/07/25 06:39:44;;;;;;;14.00;12.68;;;;;;;29.89;46.99;99244.66;5089636;28;20206;-58
2022/07/25 06:42:11;;;;;;;16.17;14.05;;;;;;;30.01;46.91;99244.66;5083193;28;20995;-58
2022/07/25 06:44:38;;;;;;;14.68;13.27;;;;;;;30.09;46.55;99241.50;5086549;28;20190;-59
2022/07/25 06:47:11;;;;;;;12.73;11.70;;;;;;;30.13;46.42;99238.56;5089346;28;20214;-58
2022/07/25 06:49:38;;;;;;;13.85;12.15;;;;;;;30.14;46.34;99239.38;5087764;28;20267;-58
2022/07/25 06:52:05;;;;;;;14.38;12.75;;;;;;;30.21;46.17;99236.22;5088990;28;20205;-58
2022/07/25 06:54:32;;;;;;;13.77;12.35;;;;;;;30.15;46.03;99241.09;5087328;28;20252;-58
2022/07/25 06:56:59;;;;;;;13.23;11.95;;;;;;;30.24;45.72;99253.72;5086273;28;20226;-59
2022/07/25 06:59:26;;;;;;;13.82;12.57;;;;;;;30.15;45.63;99219.88;5089872;28;20195;-60
2022/07/25 07:01:53;;;;;;;12.63;11.35;;;;;;;30.32;45.03;99246.09;5089550;28;20199;-59
2022/07/25 07:04:21;;;;;;;13.77;12.48;;;;;;;30.35;45.37;99246.72;5089561;28;20451;-60
2022/07/25 07:06:48;;;;;;;13.65;12.20;;;;;;;30.49;45.10;99244.97;5089189;28;20214;-58
2022/07/25 07:09:15;;;;;;;13.35;12.05;;;;;;;30.60;45.36;99239.78;5089186;28;20205;-58
2022/07/25 07:11:41;;;;;;;13.35;12.15;;;;;;;30.75;44.67;99246.63;5076787;28;20203;-59
2022/07/25 07:14:08;;;;;;;13.50;12.25;;;;;;;30.76;43.90;99243.91;5089258;28;20194;-69
2022/07/25 07:16:35;;;;;;;13.48;12.23;;;;;;;30.57;44.63;99247.94;5089745;28;20187;-69
2022/07/25 07:19:02;;;;;;;13.60;12.25;;;;;;;30.63;44.68;99243.03;5089497;28;20187;-69
2022/07/25 07:21:30;;;;;;;13.57;12.27;;;;;;;30.64;44.07;99233.28;5088672;28;20194;-69
2022/07/25 07:23:57;;;;;;;13.30;12.13;;;;;;;30.64;43.60;99234.13;5069494;28;20195;-70
2022/07/25 07:26:24;;;;;;;14.18;12.68;;;;;;;30.63;43.62;99242.22;5069085;28;20215;-67
2022/07/25 07:28:53;;;;;;;13.75;12.55;;;;;;;30.62;43.58;99238.72;5070878;28;20615;-69
2022/07/25 07:31:20;;;;;;;13.80;11.55;;;;;;;30.72;44.02;99231.78;5090023;28;20191;-69
2022/07/25 07:33:46;;;;;;;13.88;11.98;;;;;;;30.68;43.45;99234.78;5089997;28;20198;-69
2022/07/25 07:36:13;;;;;;;12.98;11.77;;;;;;;30.67;43.00;99244.53;5084559;28;21294;-70
2022/07/25 07:38:43;;;;;;;13.77;12.40;;;;;;;30.78;43.32;99239.31;5086464;28;21318;-70
2022/07/25 07:41:10;;;;;;;13.13;11.93;;;;;;;30.72;42.73;99237.09;5088948;28;20958;-69
2022/07/25 07:43:37;;;;;;;13.35;12.07;;;;;;;30.52;42.51;99237.63;5089283;28;20191;-67
2022/07/25 07:46:04;;;;;;;12.73;11.48;;;;;;;30.51;42.95;99241.25;5088306;28;20693;-67
2022/07/25 07:48:31;;;;;;;12.38;11.27;;;;;;;30.50;43.56;99236.03;5093188;28;20198;-68
2022/07/25 07:50:58;;;;;;;13.70;12.25;;;;;;;30.44;43.77;99236.50;5093234;28;20210;-68
2022/07/25 07:55:42;;;;;;;13.23;12.13;;;;;;;30.41;42.77;99232.22;5092982;28;20241;-67
2022/07/25 07:56:13;;;;;;;13.10;12.00;;;;;;;30.37;42.71;99222.78;5093255;28;20191;-68
2022/07/25 07:58:40;;;;;;;13.32;11.98;;;;;;;30.54;42.48;99230.44;5093255;28;20288;-68
2022/07/25 08:01:07;;;;;;;12.82;10.40;;;;;;;30.66;42.19;99232.22;5084364;28;20199;-67
2022/07/25 08:03:34;;;;;;;15.98;12.13;;;;;;;30.78;42.04;99234.03;5088705;28;20203;-67
2022/07/25 08:06:01;;;;;;;13.13;11.93;;;;;;;30.89;41.34;99238.56;5091774;28;20929;-68
2022/07/25 08:08:28;;;;;;;11.95;11.05;;;;;;;31.03;41.36;99234.97;5088015;28;20519;-68
2022/07/25 08:10:55;;;;;;;12.27;11.13;;;;;;;31.02;41.21;99233.25;5090661;28;20198;-68
2022/07/25 08:13:25;;;;;;;12.43;11.38;;;;;;;31.10;40.76;99236.19;5092042;28;20187;-69
2022/07/25 08:15:54;;;;;;;12.32;11.25;;;;;;;31.24;41.59;99226.28;5089816;28;20286;-69
2022/07/25 08:18:21;;;;;;;15.98;12.00;;;;;;;31.20;40.70;99238.09;5091417;28;20183;-68
2022/07/25 08:20:49;;;;;;;13.43;11.80;;;;;;;31.24;39.83;99230.75;5089112;28;20187;-69
2022/07/25 08:23:16;;;;;;;12.63;11.15;;;;;;;31.38;39.61;99225.28;5090604;28;20199;-68
2022/07/25 08:25:45;;;;;;;11.98;10.77;;;;;;;31.31;39.93;99211.63;5084813;28;20191;-68
2022/07/25 08:28:12;;;;;;;12.75;11.48;;;;;;;31.39;39.72;99233.16;5087615;28;20187;-68
2022/07/25 08:30:41;;;;;;;11.70;10.52;;;;;;;31.43;39.32;99228.44;5090584;28;20225;-67
2022/07/25 08:33:11;;;;;;;11.93;10.80;;;;;;;31.45;39.01;99213.28;5090778;28;20228;-68
2022/07/25 08:35:40;;;;;;;12.07;10.88;;;;;;;31.71;38.52;99230.81;5090537;28;20723;-69
2022/07/25 08:38:10;;;;;;;12.25;10.85;;;;;;;31.85;38.52;99233.28;5090939;28;20572;-69
2022/07/25 08:40:37;;;;;;;13.00;11.80;;;;;;;31.81;38.41;99238.94;5091526;28;20208;-68
2022/07/25 08:43:04;;;;;;;13.02;11.45;;;;;;;31.77;38.82;99233.00;5091693;28;20198;-68
2022/07/25 08:45:33;;;;;;;15.85;11.57;;;;;;;31.77;39.02;99237.47;5092927;28;20198;-69
2022/07/25 08:48:01;;;;;;;17.00;15.50;;;;;;;31.72;38.97;99229.84;5092010;28;20218;-68
2022/07/25 08:50:29;;;;;;;12.70;11.55;;;;;;;31.93;39.37;99230.88;5091872;28;20210;-68
2022/07/25 08:52:56;;;;;;;13.27;12.00;;;;;;;32.04;37.51;99233.63;5092241;28;20218;-68
2022/07/25 08:55:24;;;;;;;12.68;11.00;;;;;;;32.06;37.57;99225.50;5092209;28;20214;-69
2022/07/25 08:57:53;;;;;;;11.23;10.30;;;;;;;32.09;37.87;99226.13;5091702;28;20288;-69
2022/07/25 09:00:24;;;;;;;12.02;10.93;;;;;;;32.11;37.50;99232.16;5092042;28;20244;-69
2022/07/25 09:02:55;;;;;;;10.77;9.77;;;;;;;32.17;37.55;99227.38;5092179;28;20195;-69
2022/07/25 09:05:25;;;;;;;11.27;10.27;;;;;;;32.28;37.39;99224.75;5091340;28;20440;-69
2022/07/25 09:07:53;;;;;;;11.73;10.02;;;;;;;32.41;35.77;99217.50;5091805;28;20218;-69
2022/07/25 09:10:21;;;;;;;11.60;10.70;;;;;;;32.29;35.88;99218.44;5091837;28;20190;-69
2022/07/25 09:12:52;;;;;;;11.35;10.30;;;;;;;32.30;35.98;99217.47;5091772;28;20272;-69
2022/07/25 09:15:25;;;;;;;10.57;9.68;;;;;;;32.50;36.20;99216.75;5091765;28;20664;-70
2022/07/25 09:17:52;;;;;;;12.07;10.98;;;;;;;32.57;36.10;99212.72;5091146;28;20187;-69
2022/07/25 09:20:20;;;;;;;11.95;10.95;;;;;;;32.66;35.83;99212.00;5091635;28;20191;-68
2022/07/25 09:22:48;;;;;;;10.80;9.80;;;;;;;32.72;35.56;99214.16;5091032;28;20287;-68
2022/07/25 09:25:23;;;;;;;12.25;10.57;;;;;;;32.83;35.45;99214.16;5091146;28;20214;-68
2022/07/25 09:27:50;;;;;;;10.05;9.25;;;;;;;32.75;34.13;99207.72;5091054;28;20217;-68
2022/07/25 09:30:17;;;;;;;10.93;9.82;;;;;;;32.82;34.62;99211.63;5091052;28;20202;-68
2022/07/25 09:32:44;;;;;;;11.10;9.85;;;;;;;32.92;33.75;99210.75;5085690;28;20198;-68
2022/07/25 09:35:11;;;;;;;11.30;10.10;;;;;;;33.02;34.23;99203.72;5096390;28;20581;-68
2022/07/25 09:37:39;;;;;;;10.73;9.73;;;;;;;33.07;33.89;99187.41;5099838;28;20561;-68
2022/07/25 09:40:15;;;;;;;11.10;9.95;;;;;;;33.08;33.89;99176.63;5095083;28;20420;-68
2022/07/25 09:42:45;;;;;;;12.38;11.40;;;;;;;33.39;34.65;99195.44;5090737;28;20736;-68
2022/07/25 09:45:14;;;;;;;12.55;11.13;;;;;;;33.50;33.82;99198.06;5091046;28;20175;-68
2022/07/25 09:47:52;;;;;;;11.27;9.45;;;;;;;33.37;32.67;99192.91;5090513;28;20264;-68
2022/07/25 09:50:20;;;;;;;10.70;9.20;;;;;;;33.10;33.36;99198.66;5091089;28;20201;-68
2022/07/25 09:52:47;;;;;;;10.30;9.25;;;;;;;32.98;33.89;99199.63;5090623;28;20187;-68
2022/07/25 09:55:15;;;;;;;10.98;9.98;;;;;;;33.01;33.51;99196.72;5090718;28;20277;-69
2022/07/25 09:57:44;;;;;;;11.25;10.13;;;;;;;33.09;33.45;99198.78;5090646;28;20231;-69
2022/07/25 10:00:13;;;;;;;10.38;9.45;;;;;;;32.82;33.39;99196.50;5090833;28;20201;-70
2022/07/25 10:03:01;;;;;;;11.38;10.38;;;;;;;32.52;34.38;99161.66;5090786;28;20271;-69
2022/07/25 10:05:45;;;;;;;11.70;10.48;;;;;;;32.81;33.85;99186.81;5079832;28;20188;-69
2022/07/25 10:08:12;;;;;;;11.13;10.20;;;;;;;32.85;34.13;99193.59;5069405;28;20511;-69
2022/07/25 10:10:42;;;;;;;11.63;10.50;;;;;;;32.93;33.25;99188.50;5070293;28;20817;-68
2022/07/25 10:13:11;;;;;;;14.70;10.15;;;;;;;33.05;33.48;99190.19;5070578;28;20187;-69
2022/07/25 10:15:46;;;;;;;12.63;11.52;;;;;;;33.29;33.83;99178.53;5069997;28;20716;-69
2022/07/25 10:18:14;;;;;;;11.32;10.40;;;;;;;33.32;33.39;99178.28;5070120;28;20282;-69
2022/07/25 10:20:41;;;;;;;10.93;10.10;;;;;;;33.41;32.89;99175.69;5069961;28;20195;-68
2022/07/25 10:23:18;;;;;;;11.65;10.73;;;;;;;33.59;32.86;99168.03;5079106;28;20661;-69
2022/07/25 10:25:46;;;;;;;11.50;10.60;;;;;;;33.66;32.93;99167.38;5087954;28;20564;-69
2022/07/25 10:28:19;;;;;;;11.55;10.45;;;;;;;33.47;32.91;99139.69;5090109;28;20227;-68
2022/07/25 10:30:46;;;;;;;10.80;9.82;;;;;;;33.73;32.40;99159.72;5090115;28;20198;-68
2022/07/25 10:33:15;;;;;;;13.00;10.85;;;;;;;33.60;32.39;99154.56;5090133;28;20295;-69
2022/07/25 10:35:42;;;;;;;10.85;10.05;;;;;;;33.75;32.20;99155.09;5085037;28;20456;-68
2022/07/25 10:38:09;;;;;;;13.85;10.77;;;;;;;33.61;31.73;99155.41;5069206;28;20506;-69
2022/07/25 10:40:38;;;;;;;10.02;9.13;;;;;;;33.72;32.28;99147.38;5073349;28;20191;-69
2022/07/25 10:43:12;;;;;;;11.60;9.88;;;;;;;33.83;32.39;99149.97;5086209;28;20206;-69
2022/07/25 10:45:44;;;;;;;11.30;10.30;;;;;;;33.81;31.85;99143.94;5075607;28;20210;-69
2022/07/25 10:48:19;;;;;;;12.75;11.55;;;;;;;33.98;32.66;99146.00;5089976;28;20236;-68
2022/07/25 10:50:48;;;;;;;11.45;10.48;;;;;;;34.18;32.10;99142.50;5090099;28;20202;-68
2022/07/25 10:53:15;;;;;;;11.68;10.57;;;;;;;34.36;31.80;99138.22;5080834;28;20256;-69
2022/07/25 10:55:47;;;;;;;18.83;10.20;;;;;;;34.48;32.18;99132.78;5084944;28;20199;-69
2022/07/25 10:58:15;;;;;;;11.98;10.82;;;;;;;34.56;32.20;99131.16;5089817;28;20643;-69
2022/07/25 11:00:44;;;;;;;11.38;10.35;;;;;;;34.55;31.96;99133.97;5088454;28;20190;-68
2022/07/25 11:03:12;;;;;;;11.65;10.57;;;;;;;34.37;31.67;99134.59;5069485;28;20507;-69
2022/07/25 11:05:46;;;;;;;12.40;11.00;;;;;;;34.55;32.47;99128.63;5069779;28;20206;-70
2022/07/25 11:08:13;;;;;;;11.70;10.65;;;;;;;34.47;32.30;99126.63;5069074;28;20666;-69
2022/07/25 11:10:40;;;;;;;11.10;10.20;;;;;;;34.41;31.95;99124.50;5069133;28;20222;-69
2022/07/25 11:13:14;;;;;;;11.23;10.18;;;;;;;34.61;32.53;99117.44;5087294;28;20190;-69
2022/07/25 11:15:43;;;;;;;11.23;10.30;;;;;;;34.66;31.75;99123.22;5090104;28;20194;-69
2022/07/25 11:18:10;;;;;;;13.88;11.85;;;;;;;34.75;32.95;99122.41;5084487;28;20183;-69
2022/07/25 11:20:37;;;;;;;12.45;11.13;;;;;;;34.97;32.29;99112.31;5092102;28;20612;-69